createdAt,value
2023-02-02T00:01:15.747Z,8.20
2023-02-02T00:03:43.806Z,8.00
2023-02-02T00:06:12.095Z,8.10
2023-02-02T00:08:40.228Z,8.00
2023-02-02T00:11:08.263Z,8.00
2023-02-02T00:13:36.313Z,8.10
2023-02-02T00:16:36.051Z,8.20
2023-02-02T00:19:06.295Z,8.30
2023-02-02T00:21:34.584Z,8.20
2023-02-02T00:24:02.583Z,8.10
2023-02-02T00:26:30.725Z,8.20
2023-02-02T00:28:58.764Z,8.20
2023-02-02T00:31:26.866Z,8.20
2023-02-02T00:33:56.237Z,8.30
2023-02-02T00:36:24.535Z,8.30
2023-02-02T00:38:53.282Z,8.30
2023-02-02T00:41:21.752Z,8.30
2023-02-02T00:44:10.357Z,8.20
2023-02-02T00:46:39.635Z,8.20
2023-02-02T00:49:09.373Z,8.20
2023-02-02T00:51:38.507Z,8.20
2023-02-02T00:54:06.662Z,8.20
2023-02-02T00:56:34.682Z,8.20
2023-02-02T00:59:02.727Z,8.10
2023-02-02T01:01:30.777Z,8.20
2023-02-02T01:03:58.923Z,8.10
2023-02-02T01:06:28.361Z,8.10
2023-02-02T01:08:56.399Z,8.20
2023-02-02T01:11:25.535Z,8.30
2023-02-02T01:13:54.678Z,8.20
2023-02-02T01:16:23.242Z,8.20
2023-02-02T01:18:52.090Z,8.20
2023-02-02T01:21:20.644Z,8.20
2023-02-02T01:23:50.255Z,8.10
2023-02-02T01:26:19.162Z,8.10
2023-02-02T01:28:47.539Z,8.10
2023-02-02T01:31:17.274Z,8.00
2023-02-02T01:33:46.689Z,8.00
2023-02-02T01:36:16.814Z,8.00
2023-02-02T01:38:45.661Z,8.10
2023-02-02T01:41:16.996Z,8.10
2023-02-02T01:43:57.710Z,8.20
2023-02-02T01:46:28.060Z,8.20
2023-02-02T01:49:03.671Z,8.20
2023-02-02T01:51:39.143Z,8.10
2023-02-02T01:54:10.243Z,8.10
2023-02-02T01:56:44.350Z,8.10
2023-02-02T01:59:15.729Z,8.20
2023-02-02T02:01:47.459Z,8.10
2023-02-02T02:04:15.951Z,8.10
2023-02-02T02:06:46.147Z,8.10
2023-02-02T02:09:14.815Z,8.20
2023-02-02T02:11:44.210Z,8.20
2023-02-02T02:14:32.781Z,8.20
2023-02-02T02:17:23.337Z,8.20
2023-02-02T02:20:43.247Z,8.20
2023-02-02T02:24:13.435Z,8.20
2023-02-02T02:27:20.313Z,8.20
2023-02-02T02:30:08.022Z,8.20
2023-02-02T02:32:44.317Z,8.20
2023-02-02T02:35:22.121Z,8.20
2023-02-02T02:37:55.374Z,8.20
2023-02-02T02:40:29.688Z,8.20
2023-02-02T02:43:00.010Z,8.10
2023-02-02T02:45:29.703Z,8.10
2023-02-02T02:47:59.559Z,8.10
2023-02-02T02:50:28.211Z,8.10
2023-02-02T02:53:03.224Z,8.10
2023-02-02T02:55:37.213Z,8.10
2023-02-02T02:58:10.706Z,8.10
2023-02-02T03:00:52.311Z,8.10
2023-02-02T03:03:30.303Z,8.10
2023-02-02T03:06:04.791Z,8.10
2023-02-02T03:08:36.796Z,8.10
2023-02-02T03:11:08.624Z,8.20
2023-02-02T03:13:37.085Z,8.20
2023-02-02T03:16:05.679Z,8.30
2023-02-02T03:18:35.775Z,8.20
2023-02-02T03:21:04.031Z,8.20
2023-02-02T03:23:32.102Z,8.30
2023-02-02T03:26:00.540Z,8.30
2023-02-02T03:28:30.449Z,8.30
2023-02-02T03:31:01.711Z,8.40
2023-02-02T03:33:30.883Z,8.30
2023-02-02T03:36:00.206Z,8.20
2023-02-02T03:38:28.274Z,8.20
2023-02-02T03:40:56.317Z,8.10
2023-02-02T03:43:24.958Z,8.10
2023-02-02T03:45:57.313Z,8.10
2023-02-02T03:48:25.393Z,8.00
2023-02-02T03:50:53.702Z,8.10
2023-02-02T03:53:23.292Z,8.20
2023-02-02T03:55:51.329Z,8.20
2023-02-02T03:58:22.152Z,8.10
2023-02-02T04:00:50.692Z,8.20
2023-02-02T04:03:18.863Z,8.20
2023-02-02T04:05:51.042Z,8.30
2023-02-02T04:08:19.311Z,8.30
2023-02-02T04:10:48.836Z,8.30
2023-02-02T04:13:16.911Z,8.30
2023-02-02T04:15:44.947Z,8.30
2023-02-02T04:18:13.721Z,8.30
2023-02-02T04:20:41.733Z,8.30
2023-02-02T04:23:09.728Z,8.30
2023-02-02T04:25:37.741Z,8.20
2023-02-02T04:28:07.178Z,8.20
2023-02-02T04:30:35.183Z,8.20
2023-02-02T04:33:03.451Z,8.20
2023-02-02T04:35:31.475Z,8.30
2023-02-02T04:37:59.459Z,8.40
2023-02-02T04:40:27.908Z,8.30
2023-02-02T04:42:55.892Z,8.30
2023-02-02T04:45:25.619Z,8.30
2023-02-02T04:47:53.810Z,8.30
2023-02-02T04:50:22.137Z,8.30
2023-02-02T04:52:50.138Z,8.30
2023-02-02T04:55:18.288Z,8.20
2023-02-02T04:57:46.389Z,8.30
2023-02-02T05:00:15.689Z,8.20
2023-02-02T05:02:45.336Z,8.30
2023-02-02T05:05:15.037Z,8.30
2023-02-02T05:07:43.157Z,8.30
2023-02-02T05:10:12.765Z,8.20
2023-02-02T05:12:40.776Z,8.20
2023-02-02T05:15:09.950Z,8.10
2023-02-02T05:17:37.947Z,8.20
2023-02-02T05:20:08.200Z,8.20
2023-02-02T05:22:36.271Z,8.20
2023-02-02T05:25:04.457Z,8.20
2023-02-02T05:27:32.488Z,8.20
2023-02-02T05:30:00.556Z,8.20
2023-02-02T05:32:29.707Z,8.20
2023-02-02T05:34:57.764Z,8.20
2023-02-02T05:37:27.137Z,8.20
2023-02-02T05:39:55.130Z,8.30
2023-02-02T05:42:23.168Z,8.30
2023-02-02T05:44:51.201Z,8.30
2023-02-02T05:47:19.207Z,8.30
2023-02-02T05:49:47.247Z,8.20
2023-02-02T05:52:19.045Z,8.10
2023-02-02T05:54:48.407Z,8.20
2023-02-02T05:57:16.386Z,8.20
2023-02-02T05:59:44.367Z,8.30
2023-02-02T06:02:12.366Z,8.30
2023-02-02T06:04:40.515Z,8.40
2023-02-02T06:07:08.871Z,8.30
2023-02-02T06:09:36.890Z,8.20
2023-02-02T06:12:06.868Z,8.20
2023-02-02T06:14:34.901Z,8.20
2023-02-02T06:17:02.920Z,8.20
2023-02-02T06:19:30.933Z,8.10
2023-02-02T06:21:58.948Z,8.10
2023-02-02T06:24:27.083Z,8.10
2023-02-02T06:26:55.115Z,8.10
2023-02-02T06:29:24.759Z,8.00
2023-02-02T06:31:52.878Z,8.10
2023-02-02T06:34:21.148Z,8.20
2023-02-02T06:36:49.165Z,8.20
2023-02-02T06:39:17.228Z,8.20
2023-02-02T06:41:46.652Z,8.20
2023-02-02T06:44:15.523Z,8.20
2023-02-02T06:46:44.874Z,8.20
2023-02-02T06:49:13.271Z,8.30
2023-02-02T06:51:41.373Z,8.20
2023-02-02T06:54:09.403Z,8.30
2023-02-02T06:56:37.412Z,8.20
2023-02-02T06:59:05.635Z,8.20
2023-02-02T07:01:33.821Z,8.20
2023-02-02T07:04:03.211Z,8.20
2023-02-02T07:06:31.318Z,8.10
2023-02-02T07:09:02.215Z,8.20
2023-02-02T07:11:33.842Z,8.20
2023-02-02T07:14:04.116Z,8.20
2023-02-02T07:16:32.755Z,8.20
2023-02-02T07:19:00.747Z,8.10
2023-02-02T07:21:35.454Z,8.10
2023-02-02T07:24:04.537Z,8.10
2023-02-02T07:26:32.823Z,8.20
2023-02-02T07:29:00.948Z,8.20
2023-02-02T07:31:29.427Z,8.20
2023-02-02T07:33:57.516Z,8.20
2023-02-02T07:36:26.180Z,8.20
2023-02-02T07:38:57.292Z,8.20
2023-02-02T07:41:25.810Z,8.20
2023-02-02T07:43:53.843Z,8.10
2023-02-02T07:46:21.987Z,8.10
2023-02-02T07:48:50.105Z,8.10
2023-02-02T07:51:19.336Z,8.20
2023-02-02T07:53:48.978Z,8.10
2023-02-02T07:56:20.005Z,8.20
2023-02-02T07:58:48.473Z,8.10
2023-02-02T08:01:17.587Z,8.10
2023-02-02T08:03:45.798Z,8.10
2023-02-02T08:06:16.142Z,8.10
2023-02-02T08:08:44.299Z,8.10
2023-02-02T08:11:14.293Z,8.10
2023-02-02T08:13:44.527Z,8.10
2023-02-02T08:16:13.391Z,8.10
2023-02-02T08:18:42.244Z,8.20
2023-02-02T08:21:10.919Z,8.20
2023-02-02T08:23:40.408Z,8.20
2023-02-02T08:26:11.840Z,8.20
2023-02-02T08:28:40.817Z,8.20
2023-02-02T08:31:13.064Z,8.20
2023-02-02T08:33:41.479Z,8.20
2023-02-02T08:36:13.558Z,8.20
2023-02-02T08:38:42.215Z,8.20
2023-02-02T08:41:12.397Z,8.20
2023-02-02T08:43:41.073Z,8.20
2023-02-02T08:46:14.322Z,8.20
2023-02-02T08:48:43.075Z,8.20
2023-02-02T08:51:14.390Z,8.20
2023-02-02T08:53:42.424Z,8.30
2023-02-02T08:56:13.055Z,8.30
2023-02-02T08:58:41.444Z,8.30
2023-02-02T09:01:13.974Z,8.40
2023-02-02T09:03:42.197Z,8.40
2023-02-02T09:06:12.015Z,8.40
2023-02-02T09:08:40.517Z,8.40
2023-02-02T09:11:10.616Z,8.40
2023-02-02T09:13:40.259Z,8.50
2023-02-02T09:16:11.849Z,8.50
2023-02-02T09:18:42.002Z,8.40
2023-02-02T09:21:12.052Z,8.40
2023-02-02T09:23:41.848Z,8.50
2023-02-02T09:26:11.890Z,8.50
2023-02-02T09:28:42.446Z,8.50
2023-02-02T09:31:11.098Z,8.50
2023-02-02T09:33:41.275Z,8.60
2023-02-02T09:36:11.299Z,8.50
2023-02-02T09:38:40.162Z,8.50
2023-02-02T09:41:26.716Z,8.60
2023-02-02T09:44:03.265Z,8.60
2023-02-02T09:46:43.410Z,8.60
2023-02-02T09:49:16.729Z,8.50
2023-02-02T09:51:49.066Z,8.60
2023-02-02T09:54:20.743Z,8.60
2023-02-02T09:56:54.551Z,8.60
2023-02-02T09:59:26.031Z,8.60
2023-02-02T10:01:56.929Z,8.60
2023-02-02T10:04:34.161Z,8.60
2023-02-02T10:07:09.088Z,8.60
2023-02-02T10:09:43.496Z,8.50
2023-02-02T10:12:26.665Z,8.50
2023-02-02T10:14:59.117Z,8.60
2023-02-02T10:17:38.390Z,8.60
2023-02-02T10:20:18.986Z,8.50
2023-02-02T10:22:48.385Z,8.50
2023-02-02T10:25:17.779Z,8.50
2023-02-02T10:27:51.156Z,8.50
2023-02-02T10:30:21.244Z,8.60
2023-02-02T10:32:55.711Z,8.60
2023-02-02T10:35:37.931Z,8.60
2023-02-02T10:38:15.587Z,8.60
2023-02-02T10:40:54.342Z,8.50
2023-02-02T10:43:49.143Z,8.50
2023-02-02T10:46:23.388Z,8.60
2023-02-02T10:48:53.147Z,8.60
2023-02-02T10:51:27.799Z,8.50
2023-02-02T10:53:58.801Z,8.50
2023-02-02T10:56:32.330Z,8.50
2023-02-02T10:59:07.011Z,8.50
2023-02-02T11:01:35.097Z,8.50
2023-02-02T11:04:20.959Z,8.50
2023-02-02T11:06:50.635Z,8.50
2023-02-02T11:09:22.159Z,8.50
2023-02-02T11:11:55.426Z,8.50
2023-02-02T11:14:35.088Z,8.60
2023-02-02T11:17:06.223Z,8.50
2023-02-02T11:19:35.995Z,8.60
2023-02-02T11:22:05.973Z,8.60
2023-02-02T11:24:41.166Z,8.60
2023-02-02T11:27:15.720Z,8.60
2023-02-02T11:29:46.599Z,8.60
2023-02-02T11:32:27.333Z,8.60
2023-02-02T11:35:15.480Z,8.60
2023-02-02T11:37:57.131Z,8.70
2023-02-02T11:40:31.254Z,8.70
2023-02-02T11:43:01.997Z,8.80
2023-02-02T11:45:36.155Z,8.80
2023-02-02T11:48:08.464Z,8.80
2023-02-02T11:50:37.247Z,8.80
2023-02-02T11:53:07.169Z,8.80
2023-02-02T11:55:36.423Z,8.80
2023-02-02T11:58:43.976Z,8.70
2023-02-02T12:01:25.441Z,8.70
2023-02-02T12:03:56.101Z,8.70
2023-02-02T12:06:26.314Z,8.80
2023-02-02T12:08:59.014Z,8.80
2023-02-02T12:11:40.661Z,8.70
2023-02-02T12:14:31.799Z,8.70
2023-02-02T12:17:14.302Z,8.70
2023-02-02T12:20:10.137Z,8.70
2023-02-02T12:22:57.374Z,8.70
2023-02-02T12:25:41.555Z,8.70
2023-02-02T12:28:23.560Z,8.80
2023-02-02T12:30:59.744Z,8.80
2023-02-02T12:33:35.940Z,8.80
2023-02-02T12:36:31.919Z,8.80
2023-02-02T12:39:10.964Z,8.90
2023-02-02T12:41:56.940Z,8.80
2023-02-02T12:44:33.374Z,8.80
2023-02-02T12:47:14.363Z,8.80
2023-02-02T12:49:56.071Z,8.80
2023-02-02T12:52:38.758Z,8.90
2023-02-02T12:55:18.971Z,8.80
2023-02-02T12:57:57.562Z,8.90
2023-02-02T13:00:39.456Z,8.90
2023-02-02T13:03:22.312Z,8.90
2023-02-02T13:06:03.050Z,8.90
2023-02-02T13:08:37.517Z,8.90
2023-02-02T13:11:29.578Z,8.90
2023-02-02T13:14:02.809Z,8.90
2023-02-02T13:16:32.660Z,9.00
2023-02-02T13:19:05.586Z,8.90
2023-02-02T13:21:34.711Z,8.90
2023-02-02T13:24:06.257Z,9.00
2023-02-02T13:26:39.316Z,9.00
2023-02-02T13:29:23.242Z,9.00
2023-02-02T13:31:57.754Z,9.10
2023-02-02T13:34:35.140Z,9.00
2023-02-02T13:37:09.591Z,9.00
2023-02-02T13:39:41.740Z,9.00
2023-02-02T13:42:20.077Z,9.10
2023-02-02T13:44:56.379Z,9.10
2023-02-02T13:47:31.316Z,9.10
2023-02-02T13:50:05.604Z,9.10
2023-02-02T13:52:51.110Z,9.20
2023-02-02T13:55:37.911Z,9.10
2023-02-02T13:58:30.051Z,9.10
2023-02-02T14:01:03.019Z,9.10
2023-02-02T14:03:38.590Z,9.20
2023-02-02T14:06:10.702Z,9.10
2023-02-02T14:08:44.281Z,9.10
2023-02-02T14:11:20.307Z,9.10
2023-02-02T14:14:08.059Z,9.20
2023-02-02T14:16:52.321Z,9.10
2023-02-02T14:19:59.004Z,9.20
2023-02-02T14:22:54.546Z,9.20
2023-02-02T14:25:48.571Z,9.10
2023-02-02T14:28:45.062Z,9.20
2023-02-02T14:31:31.644Z,9.20
2023-02-02T14:34:33.963Z,9.20
2023-02-02T14:37:36.266Z,9.20
2023-02-02T14:40:27.547Z,9.20
2023-02-02T14:43:23.582Z,9.20
2023-02-02T14:46:26.886Z,9.20
2023-02-02T14:49:14.513Z,9.20
2023-02-02T14:51:55.127Z,9.20
2023-02-02T14:54:26.971Z,9.20
2023-02-02T14:56:59.551Z,9.20
2023-02-02T14:59:31.083Z,9.20
2023-02-02T15:02:07.478Z,9.20
2023-02-02T15:04:35.578Z,9.10
2023-02-02T15:07:39.183Z,9.20
2023-02-02T15:10:10.854Z,9.10
2023-02-02T15:12:42.764Z,9.10
2023-02-02T15:15:19.484Z,9.10
2023-02-02T15:18:01.068Z,9.10
2023-02-02T15:20:32.149Z,9.20
2023-02-02T15:23:06.631Z,9.20
2023-02-02T15:25:41.731Z,9.20
2023-02-02T15:28:15.640Z,9.20
2023-02-02T15:30:49.311Z,9.20
2023-02-02T15:33:27.018Z,9.10
2023-02-02T15:35:57.744Z,9.10
2023-02-02T15:38:34.755Z,9.10
2023-02-02T15:41:08.673Z,9.10
2023-02-02T15:43:37.346Z,9.10
2023-02-02T15:46:08.531Z,9.10
2023-02-02T15:48:36.695Z,9.10
2023-02-02T15:51:07.947Z,9.10
2023-02-02T15:53:48.799Z,9.10
2023-02-02T15:56:29.284Z,9.10
2023-02-02T15:58:59.451Z,9.10
2023-02-02T16:01:30.645Z,9.10
2023-02-02T16:04:15.418Z,9.10
2023-02-02T16:06:45.330Z,9.10
2023-02-02T16:09:24.439Z,9.10
2023-02-02T16:11:53.052Z,9.10
2023-02-02T16:14:21.433Z,9.10
2023-02-02T16:16:50.403Z,9.10
2023-02-02T16:19:21.832Z,9.10
2023-02-02T16:21:54.537Z,9.00
2023-02-02T16:24:26.865Z,9.00
2023-02-02T16:26:58.580Z,9.00
2023-02-02T16:29:28.131Z,9.00
2023-02-02T16:31:57.167Z,9.00
2023-02-02T16:34:47.470Z,9.00
2023-02-02T16:37:18.533Z,9.00
2023-02-02T16:39:49.342Z,9.00
2023-02-02T16:42:26.744Z,9.00
2023-02-02T16:44:57.033Z,9.00
2023-02-02T16:47:40.236Z,9.00
2023-02-02T16:50:30.050Z,9.00
2023-02-02T16:53:02.085Z,9.00
2023-02-02T16:55:47.968Z,9.00
2023-02-02T16:58:22.497Z,9.00
2023-02-02T17:01:12.337Z,9.00
2023-02-02T17:03:49.288Z,9.00
2023-02-02T17:06:17.527Z,9.00
2023-02-02T17:08:45.605Z,9.00
2023-02-02T17:11:24.738Z,8.90
2023-02-02T17:13:53.433Z,9.00
2023-02-02T17:16:24.268Z,9.00
2023-02-02T17:18:52.743Z,9.00
2023-02-02T17:21:23.697Z,9.00
2023-02-02T17:23:54.165Z,9.00
2023-02-02T17:26:23.690Z,9.00
2023-02-02T17:28:56.019Z,9.00
2023-02-02T17:31:24.192Z,9.00
2023-02-02T17:33:52.326Z,9.00
2023-02-02T17:36:20.665Z,8.90
2023-02-02T17:38:48.713Z,9.00
2023-02-02T17:41:16.743Z,8.90
2023-02-02T17:43:46.121Z,8.90
2023-02-02T17:46:14.232Z,8.90
2023-02-02T17:48:42.702Z,8.90
2023-02-02T17:51:15.897Z,8.90
2023-02-02T17:53:44.235Z,8.90
2023-02-02T17:56:12.311Z,8.90
2023-02-02T17:58:40.996Z,8.90
2023-02-02T18:01:12.503Z,8.90
2023-02-02T18:03:42.417Z,8.90
2023-02-02T18:06:11.645Z,8.90
2023-02-02T18:08:40.788Z,8.90
2023-02-02T18:11:12.422Z,8.90
2023-02-02T18:13:42.409Z,8.90
2023-02-02T18:16:12.484Z,8.90
2023-02-02T18:18:40.936Z,8.90
2023-02-02T18:21:10.731Z,8.90
2023-02-02T18:23:39.489Z,8.90
2023-02-02T18:26:12.121Z,8.90
2023-02-02T18:28:40.728Z,8.90
2023-02-02T18:31:11.886Z,9.00
2023-02-02T18:33:41.613Z,8.90
2023-02-02T18:36:12.347Z,8.90
2023-02-02T18:38:41.665Z,8.90
2023-02-02T18:41:09.647Z,8.90
2023-02-02T18:43:37.639Z,9.00
2023-02-02T18:46:08.778Z,8.90
2023-02-02T18:48:38.609Z,9.00
2023-02-02T18:51:07.638Z,8.90
2023-02-02T18:53:38.636Z,8.90
2023-02-02T18:56:07.553Z,9.00
2023-02-02T18:58:36.756Z,8.90
2023-02-02T19:01:08.489Z,9.00
2023-02-02T19:03:39.621Z,9.00
2023-02-02T19:06:27.600Z,8.90
2023-02-02T19:08:56.029Z,9.00
2023-02-02T19:11:26.641Z,9.00
2023-02-02T19:13:55.038Z,9.00
2023-02-02T19:16:26.211Z,9.00
2023-02-02T19:18:58.275Z,9.00
2023-02-02T19:21:30.323Z,9.00
2023-02-02T19:24:00.707Z,9.00
2023-02-02T19:26:30.361Z,9.00
2023-02-02T19:29:06.673Z,9.00
2023-02-02T19:31:34.687Z,9.00
2023-02-02T19:34:12.742Z,9.00
2023-02-02T19:36:46.213Z,9.00
2023-02-02T19:39:17.786Z,9.00
2023-02-02T19:41:45.777Z,8.90
2023-02-02T19:44:18.684Z,9.00
2023-02-02T19:46:50.775Z,9.00
2023-02-02T19:49:29.268Z,9.00
2023-02-02T19:51:58.682Z,9.00
2023-02-02T19:54:34.780Z,9.00
2023-02-02T19:57:15.919Z,9.00
2023-02-02T19:59:46.976Z,9.00
2023-02-02T20:02:34.611Z,9.00
2023-02-02T20:05:17.704Z,8.90
2023-02-02T20:07:45.823Z,9.00
2023-02-02T20:10:21.088Z,9.00
2023-02-02T20:12:49.959Z,9.00
2023-02-02T20:15:26.653Z,9.00
2023-02-02T20:17:56.631Z,9.00
2023-02-02T20:20:29.610Z,9.00
2023-02-02T20:22:58.415Z,9.00
2023-02-02T20:25:26.735Z,9.00
2023-02-02T20:27:54.932Z,8.90
2023-02-02T20:30:26.558Z,9.00
2023-02-02T20:32:57.951Z,8.90
2023-02-02T20:35:36.926Z,8.90
2023-02-02T20:38:17.174Z,8.90
2023-02-02T20:40:46.260Z,8.90
2023-02-02T20:43:15.840Z,9.00
2023-02-02T20:45:44.345Z,9.00
2023-02-02T20:48:14.152Z,9.00
2023-02-02T20:50:43.609Z,9.00
2023-02-02T20:53:14.669Z,9.00
2023-02-02T20:55:42.728Z,9.00
2023-02-02T20:58:11.337Z,9.00
2023-02-02T21:00:39.847Z,9.00
2023-02-02T21:03:07.840Z,9.00
2023-02-02T21:05:35.853Z,9.00
2023-02-02T21:08:06.972Z,9.00
2023-02-02T21:10:35.303Z,8.90
2023-02-02T21:13:03.376Z,9.00
2023-02-02T21:15:31.417Z,9.00
2023-02-02T21:17:59.435Z,8.90
2023-02-02T21:20:27.926Z,9.00
2023-02-02T21:22:56.724Z,9.00
2023-02-02T21:25:26.196Z,9.00
2023-02-02T21:27:59.547Z,9.00
2023-02-02T21:30:28.256Z,9.00
2023-02-02T21:32:56.626Z,9.00
2023-02-02T21:35:26.668Z,9.00
2023-02-02T21:37:58.624Z,9.00
2023-02-02T21:40:32.846Z,9.00
2023-02-02T21:43:06.460Z,9.00
2023-02-02T21:45:36.721Z,9.00
2023-02-02T21:48:08.319Z,9.00
2023-02-02T21:50:38.366Z,9.00
2023-02-02T21:53:19.776Z,9.00
2023-02-02T21:55:53.427Z,9.00
2023-02-02T21:58:25.862Z,8.90
2023-02-02T22:00:55.189Z,9.00
2023-02-02T22:03:46.708Z,9.00
2023-02-02T22:06:28.741Z,9.00
2023-02-02T22:09:02.673Z,9.00
2023-02-02T22:11:39.857Z,9.00
2023-02-02T22:14:20.258Z,9.00
2023-02-02T22:16:51.113Z,9.00
2023-02-02T22:19:32.475Z,9.00
2023-02-02T22:22:21.722Z,9.00
2023-02-02T22:24:58.380Z,9.00
2023-02-02T22:27:38.191Z,9.00
2023-02-02T22:30:19.119Z,9.00
2023-02-02T22:32:47.112Z,9.00
2023-02-02T22:35:15.334Z,9.00
2023-02-02T22:37:43.355Z,9.00
2023-02-02T22:40:12.689Z,9.00
2023-02-02T22:42:42.013Z,9.00
2023-02-02T22:45:10.709Z,9.00
2023-02-02T22:47:38.760Z,9.00
2023-02-02T22:50:07.737Z,9.00
2023-02-02T22:52:36.381Z,9.00
2023-02-02T22:55:04.435Z,9.00
2023-02-02T22:57:32.472Z,9.10
2023-02-02T23:00:01.894Z,9.00
2023-02-02T23:02:29.968Z,9.00
2023-02-02T23:04:58.024Z,9.00
2023-02-02T23:07:26.045Z,9.00
2023-02-02T23:09:54.064Z,9.00
2023-02-02T23:12:22.087Z,9.00
2023-02-02T23:14:50.150Z,9.10
2023-02-02T23:17:19.519Z,9.10
2023-02-02T23:19:47.520Z,9.00
2023-02-02T23:22:15.542Z,9.10
2023-02-02T23:24:44.426Z,9.10
2023-02-02T23:27:13.375Z,9.10
2023-02-02T23:29:41.389Z,9.00
2023-02-02T23:32:09.436Z,9.00
2023-02-02T23:34:38.817Z,9.00
2023-02-02T23:37:07.020Z,8.90
2023-02-02T23:39:35.116Z,8.90
2023-02-02T23:42:03.568Z,9.00
2023-02-02T23:44:31.623Z,8.90
2023-02-02T23:47:00.056Z,9.00
2023-02-02T23:49:28.297Z,9.00
2023-02-02T23:51:57.882Z,9.00
2023-02-02T23:54:26.600Z,9.00
2023-02-02T23:56:54.782Z,9.00
2023-02-02T23:59:22.918Z,9.00
